Login

Christiano Boaretto
1 activity; - Last training unit 28/02/2015
28/02/2015 Show to everybody 02/28/2015 Gorizia, Italy, Friuli-Venezia Giulia, Italy 92.82 792 03:31:21 26.35 Km\h
27/02/2015 Show to everybody 02/27/2015 Gorizia, Italy, Friuli-Venezia Giulia, Italy 40.78 532 01:57:17 20.86 Km\h
24/02/2015 Show to everybody 02/24/2015 Gorizia, Italy, Friuli-Venezia Giulia, Italy 40.52 28 01:16:17 31.87 Km\h
23/02/2015 Show to everybody 02/23/2015 Gorizia, Italy, Friuli-Venezia Giulia, Italy 41.33 480 01:33:21 26.57 Km\h
23/02/2015 Show to everybody 02/23/2015 Gorizia, Italy, Friuli-Venezia Giulia, Italy 41.33 480 01:33:21 26.57 Km\h
21/02/2015 Show to everybody 02/21/2015 Gorizia, Italy, Friuli-Venezia Giulia, Italy 48.92 678 02:32:38 19.23 Km\h
19/02/2015 Show to everybody 02/19/2015 Gorizia, Italy, Friuli-Venezia Giulia, Italy 41.57 470 01:34:57 26.27 Km\h
18/02/2015 Show to everybody 02/18/2015 Gorizia, Italy, Friuli-Venezia Giulia, Italy 33.31 391 01:38:38 20.26 Km\h
16/02/2015 Show to everybody 02/16/2015 Gorizia, Italy, Friuli-Venezia Giulia, Italy 39.07 561 01:56:43 20.08 Km\h
15/02/2015 Show to everybody 02/15/2015 Gorizia, Italy, Friuli-Venezia Giulia, Italy 52.67 852 02:57:48 17.77 Km\h
13/02/2015 Show to everybody 02/13/2015 Gorizia, Italy, Friuli-Venezia Giulia, Italy 39.06 552 01:56:22 20.14 Km\h
10/02/2015 Show to everybody 02/10/2015 Gorizia, Italy, Friuli-Venezia Giulia, Italy 39.1 561 02:00:42 19.44 Km\h
08/02/2015 Show to everybody 02/08/2015 Gorizia, Italy, Friuli-Venezia Giulia, Italy 78.63 1489 04:53:36 16.07 Km\h
06/02/2015 Show to everybody 02/06/2015 Gorizia, Italy, Friuli-Venezia Giulia, Italy 39.09 583 02:02:17 19.18 Km\h
03/02/2015 Show to everybody 02/03/2015 Gorizia, Italy, Friuli-Venezia Giulia, Italy 41.54 469 01:37:13 25.64 Km\h
01/02/2015 Show to everybody 02/01/2015 Gorizia, Italy, Friuli-Venezia Giulia, Italy 70.85 1144 03:44:42 18.92 Km\h
28/01/2015 Show to everybody 01/28/2015 Sagrado, Friuli-Venezia Giulia, Italy 32.45 449 01:18:07 24.93 Km\h
27/01/2015 Show to everybody 01/27/2015 Gorizia, Italy, Friuli-Venezia Giulia, Italy 41.6 470 01:37:58 25.48 Km\h
25/01/2015 Show to everybody 25/01/15 Gorizia, Italy, Friuli-Venezia Giulia, Italy 64.5 1045 03:24:10 18.96 Km\h
23/01/2015 Show to everybody 01/23/2015 Gorizia, Italy, Friuli-Venezia Giulia, Italy 41.57 464 01:39:06 25.17 Km\h
22/01/2015 Show to everybody 01/22/2015 Gorizia, Italy, Friuli-Venezia Giulia, Italy 40.67 23 01:21:54 29.79 Km\h
10/01/2015 Show to everybody 01/10/2015 Gorizia, Italy, Friuli-Venezia Giulia, Italy 50.14 528 02:16:04 22.11 Km\h
07/01/2015 Show to everybody 01/07/2015 Gorizia, Italy, Friuli-Venezia Giulia, Italy 35.78 370 01:50:51 19.37 Km\h
05/01/2015 Show to everybody 01/05/2015 Gorizia, Italy, Friuli-Venezia Giulia, Italy 47.77 564 02:16:28 21 Km\h
04/01/2015 Show to everybody 01/04/2015 Gorizia, Italy, Friuli-Venezia Giulia, Italy 59.12 964 03:18:43 17.85 Km\h
02/01/2015 Show to everybody 01/02/2015 Gorizia, Italy, Friuli-Venezia Giulia, Italy 39.22 599 02:02:08 19.27 Km\h
01/01/2015 Show to everybody 01/01/2015 Gorizia, Italy, Friuli-Venezia Giulia, Italy 39.7 609 02:04:22 19.15 Km\h
22/01/2014 Show to everybody mtb 30.76 330 01:44:39 17.63 Km\h
21/01/2014 Show to everybody mtb 37.23 494 02:14:29 16.61 Km\h
15/01/2014 Show to everybody mtb 34.58 433 02:01:41 17.05 Km\h
01/01/2014 Show to everybody Mtb 51.97 565 03:02:18 17.1 Km\h
Training units 0
Kilometers 0 Km
Vertical gain 0 mt
Hours of riding 00:00:00
Average speed 0 Km/h
average HR 142
Points 52
Live Tracking »


 
If you stop following this users you will not be able to compare your trainings with his

Now you follow this users and you can compare your trainings


MTB-Forum.it | 2012-2019 Training Camp v.1.6 rev 05